WetterOnline ( http://www.wetteronline.de )

Wetter aktuell Ahaus

Aktuelles Wetter: Ahaus (46m)

6-stündlich | Neueste Meldungen
Ortszeit Temperatur Wetter
Do, 15.11. 19:00 2.5° C leicht bewölkt
Do, 15.11. 13:00 10.0° C wolkenlos
Do, 15.11. 7:00 -0.7° C Nebel
Do, 15.11. 1:00 2.8° C wolkig
Mi, 14.11. 19:00 5.0° C wolkig
Mi, 14.11. 13:00 12.1° C leicht bewölkt
Mi, 14.11. 7:00 6.2° C fast wolkenlos
Mi, 14.11. 1:00 7.2° C fast wolkenlos
Ortszeit Temperatur Wetter
Do, 15.11. 23:00 -0.3° C wolkenlos
Do, 15.11. 22:50 -0.3° C wolkenlos
Do, 15.11. 22:40 0.1° C Nebel
Do, 15.11. 22:30 0.1° C leicht bewölkt
Do, 15.11. 22:20 0.1° C leicht bewölkt
Do, 15.11. 22:10 0.8° C leicht bewölkt
Do, 15.11. 22:00 0.2° C leicht bewölkt
Do, 15.11. 21:30 0.4° C wolkig
Do, 15.11. 21:00 1.8° C leicht bewölkt
Do, 15.11. 20:30 2.2° C wolkenlos
Do, 15.11. 20:00 2.0° C leicht bewölkt
Ortszeit Relative Feuchte Sichtweite
Do, 15.11. 19:00 96% 7 km
Do, 15.11. 13:00 68% 20 km
Do, 15.11. 7:00 100% 100 m
Do, 15.11. 1:00 97% 3.5 km
Mi, 14.11. 19:00 95% 8 km
Mi, 14.11. 13:00 77% 21 km
Mi, 14.11. 7:00 95% 8 km
Mi, 14.11. 1:00 95% 10 km
Ortszeit Relative Feuchte Sichtweite
Do, 15.11. 23:00 99% 4.4 km
Do, 15.11. 22:50 99% -
Do, 15.11. 22:40 100% -
Do, 15.11. 22:30 99% 1.1 km
Do, 15.11. 22:20 99% -
Do, 15.11. 22:10 100% -
Do, 15.11. 22:00 100% 2.1 km
Do, 15.11. 21:30 98% 4.6 km
Do, 15.11. 21:00 100% 3.0 km
Do, 15.11. 20:30 99% 4.8 km
Do, 15.11. 20:00 97% 5.0 km
Ortszeit Niederschlagsmenge Niederschlagsart
Do, 15.11. 19:00 0.0 l/m2 in 12 Std. -
Do, 15.11. 13:00 0.0 l/m2 in 6 Std. -
Do, 15.11. 7:00 0.0 l/m2 in 12 Std. -
Do, 15.11. 1:00 0.0 l/m2 in 6 Std. -
Mi, 14.11. 19:00 0.0 l/m2 in 12 Std. -
Mi, 14.11. 13:00 0.0 l/m2 in 6 Std. -
Mi, 14.11. 7:00 0.0 l/m2 in 12 Std. -
Mi, 14.11. 1:00 0.0 l/m2 in 6 Std. -
Ortszeit Niederschlagsmenge Niederschlagsart
Do, 15.11. 23:00 0.0 l/m2 in 1 Std. -
Do, 15.11. 22:50 keine Meldung -
Do, 15.11. 22:40 keine Meldung -
Do, 15.11. 22:30 0.0 l/m2 in 1 Std. -
Do, 15.11. 22:20 keine Meldung -
Do, 15.11. 22:10 keine Meldung -
Do, 15.11. 22:00 0.0 l/m2 in 1 Std. -
Do, 15.11. 21:30 0.0 l/m2 in 1 Std. -
Do, 15.11. 21:00 0.0 l/m2 in 1 Std. -
Do, 15.11. 20:30 0.0 l/m2 in 1 Std. -
Do, 15.11. 20:00 0.0 l/m2 in 1 Std. -
Ortszeit Stärke Spitze Richtung
km/h Bft. km/h Grad Sektor
Do, 15.11. 19:00 4 1 14 100° O
Do, 15.11. 13:00 7 2 14 140° SO
Do, 15.11. 7:00 6 1 9 100° O
Do, 15.11. 1:00 4 1 11 100° O
Mi, 14.11. 19:00 4 1 22 130° SO
Mi, 14.11. 13:00 11 2 22 210° SW
Mi, 14.11. 7:00 9 2 17 190° S
Mi, 14.11. 1:00 9 2 22 210° SW
Ortszeit Stärke Spitze Richtung
km/h Bft. km/h Grad Sektor
Do, 15.11. 23:00 4 1 18 130° SO
Do, 15.11. 22:50 4 1 - 130° SO
Do, 15.11. 22:40 4 1 - 150° SO
Do, 15.11. 22:30 4 1 7 120° SO
Do, 15.11. 22:20 4 1 - 120° SO
Do, 15.11. 22:10 4 1 - 120° SO
Do, 15.11. 22:00 7 2 18 130° SO
Do, 15.11. 21:30 4 1 18 100° O
Do, 15.11. 21:00 2 1 7 140° SO
Do, 15.11. 20:30 4 1 7 110° O
Do, 15.11. 20:00 4 1 7 100° O
Ortszeit Untergrenze Bedeckung Gattung
total tief tief mittel hoch
Do, 15.11. 19:00 9000 m 4/8 0/8 - - -
Do, 15.11. 13:00 - 0/8 0/8 - - -
Do, 15.11. 7:00 10500 m 1/8 0/8 - - -
Do, 15.11. 1:00 9000 m 8/8 0/8 - - -
Mi, 14.11. 19:00 9000 m 8/8 0/8 - - -
Mi, 14.11. 13:00 10500 m 8/8 0/8 - - -
Mi, 14.11. 7:00 10500 m 1/8 0/8 - - -
Mi, 14.11. 1:00 7800 m 2/8 0/8 - - -
Ortszeit Bedeckungsgrad in Achtel und Wolkenuntergrenze
Do, 15.11. 23:00 keine Wolken
Do, 15.11. 22:50 keine Wolken
Do, 15.11. 22:40 1(9000m)
Do, 15.11. 22:30 4(9000m)
Do, 15.11. 22:20 4(9000m)
Do, 15.11. 22:10 5(9000m)
Do, 15.11. 22:00 4(9000m)
Do, 15.11. 21:30 7(9000m)
Do, 15.11. 21:00 3(9000m)
Do, 15.11. 20:30 2(9000m)
Do, 15.11. 20:00 5(9000m)
Ortszeit Luftdruck NN (hPa) Tendenz (hPa in 3 Std.)
Do, 15.11. 19:00 1026 + 0,4
Do, 15.11. 13:00 1026 - 0,7
Do, 15.11. 7:00 1026 0,0
Do, 15.11. 1:00 1027 - 0,3
Mi, 14.11. 19:00 1027 - 0,5
Mi, 14.11. 13:00 1028 - 0,4
Mi, 14.11. 7:00 1028 - 0,5
Mi, 14.11. 1:00 1029 + 0,8
Ortszeit Luftdruck NN (hPa) Tendenz (hPa in 3 Std.)
Do, 15.11. 23:00 1027 + 0,9
Do, 15.11. 22:50 1027 keine Meldung
Do, 15.11. 22:40 1027 keine Meldung
Do, 15.11. 22:30 1027 + 0,5
Do, 15.11. 22:20 1027 keine Meldung
Do, 15.11. 22:10 1027 keine Meldung
Do, 15.11. 22:00 1027 + 0,3
Do, 15.11. 21:30 1026 + 0,3
Do, 15.11. 21:00 1026 + 0,6
Do, 15.11. 20:30 1026 + 0,5
Do, 15.11. 20:00 1026 + 0,4
Ortszeit Schneehöhe (cm)
Do, 15.11. 19:00 0
Do, 15.11. 13:00 0
Do, 15.11. 7:00 0
Do, 15.11. 1:00 0
Mi, 14.11. 19:00 0
Mi, 14.11. 13:00 0
Mi, 14.11. 7:00 0
Mi, 14.11. 1:00 0
Ortszeit Schneehöhe (cm)
Do, 15.11. 23:00 0
Do, 15.11. 22:50 0
Do, 15.11. 22:40 0
Do, 15.11. 22:30 0
Do, 15.11. 22:20 0
Do, 15.11. 22:10 0
Do, 15.11. 22:00 0
Do, 15.11. 21:30 0
Do, 15.11. 21:00 0
Do, 15.11. 20:30 0
Do, 15.11. 20:00 0
Link zu dieser Seite / Seite empfehlen

Das Wetter in ...